Time;durP1;ratioP1;P1;durP2;ratioP2;P2;SDS_P1;SDS_P2;PMS_P1;PMS_P2;Temp;Humidity;BMP_temperature;BMP_pressure;BME280_temperature;BME280_humidity;BME280_pressure;Samples;Min_cycle;Max_cycle;Signal;HPM_P1;HPM_P2
2022/05/03 00:01:50;;;;;;;4.75;3.15;;;6.20;99.90;;;;;;4931519;29;20051;-76
2022/05/03 00:04:23;;;;;;;6.95;3.72;;;6.10;99.90;;;;;;4916057;29;20043;-75
2022/05/03 00:07:26;;;;;;;4.85;3.22;;;6.10;99.90;;;;;;5006697;28;20115;-75
2022/05/03 00:10:00;;;;;;;5.63;3.20;;;6.10;99.90;;;;;;5013407;28;20307;-75
2022/05/03 00:12:31;;;;;;;4.93;2.67;;;6.10;99.90;;;;;;5013773;28;20404;-76
2022/05/03 00:15:00;;;;;;;6.78;3.45;;;6.10;99.90;;;;;;5013760;28;20041;-76
2022/05/03 00:17:26;;;;;;;5.18;3.08;;;6.00;99.90;;;;;;5013949;28;20055;-75
2022/05/03 00:19:53;;;;;;;5.95;2.60;;;6.00;99.90;;;;;;5012948;28;20037;-74
2022/05/03 00:22:19;;;;;;;5.28;3.20;;;5.90;99.90;;;;;;5013617;28;20055;-76
2022/05/03 00:24:45;;;;;;;4.65;2.88;;;5.90;99.90;;;;;;5013776;28;20042;-76
2022/05/03 00:27:12;;;;;;;5.93;3.20;;;6.00;99.90;;;;;;5012806;28;20037;-76
2022/05/03 00:29:39;;;;;;;8.98;3.28;;;5.90;99.90;;;;;;5013136;28;20542;-76
2022/05/03 00:32:05;;;;;;;5.95;3.45;;;5.90;99.90;;;;;;5013748;28;20045;-76
2022/05/03 00:34:32;;;;;;;5.80;3.65;;;5.90;99.90;;;;;;4997423;28;20084;-76
2022/05/03 00:36:57;;;;;;;5.95;3.80;;;5.80;99.90;;;;;;5013018;28;20049;-76
2022/05/03 00:39:23;;;;;;;5.07;3.30;;;5.70;99.90;;;;;;5013172;28;20456;-76
2022/05/03 00:42:21;;;;;;;6.72;3.40;;;5.70;99.90;;;;;;5013059;28;20045;-76
2022/05/03 00:45:24;;;;;;;9.43;3.17;;;5.70;99.90;;;;;;5013166;28;20045;-76
2022/05/03 00:48:12;;;;;;;6.18;3.63;;;5.70;99.90;;;;;;5013362;28;20440;-78
2022/05/03 00:50:42;;;;;;;5.18;3.33;;;5.70;99.90;;;;;;5012791;28;20124;-76
2022/05/03 00:53:26;;;;;;;6.03;3.78;;;5.60;99.90;;;;;;4996725;28;20121;-76
2022/05/03 00:56:22;;;;;;;8.55;3.83;;;5.60;99.90;;;;;;5012905;28;20048;-75
2022/05/03 00:59:06;;;;;;;7.30;3.42;;;5.60;99.90;;;;;;5013332;28;20073;-75
2022/05/03 01:01:57;;;;;;;5.57;3.33;;;5.60;99.90;;;;;;5012478;28;20041;-75
2022/05/03 01:04:46;;;;;;;6.63;3.72;;;5.60;99.90;;;;;;5012881;28;20041;-75
2022/05/03 01:07:33;;;;;;;6.45;3.88;;;5.50;99.90;;;;;;5015066;28;20038;-73
2022/05/03 01:10:26;;;;;;;6.68;3.60;;;5.40;99.90;;;;;;5034029;28;20274;-76
2022/05/03 01:13:05;;;;;;;10.27;4.60;;;5.40;99.90;;;;;;5022782;28;20048;-76
2022/05/03 01:15:37;;;;;;;5.78;3.17;;;5.40;99.90;;;;;;5012719;28;20048;-75
2022/05/03 01:18:06;;;;;;;6.68;4.03;;;5.40;99.90;;;;;;5012740;28;20038;-76
2022/05/03 01:20:59;;;;;;;7.55;3.65;;;5.40;99.90;;;;;;5012433;28;20103;-75
2022/05/03 01:24:03;;;;;;;5.28;3.17;;;5.40;99.90;;;;;;5013172;28;20037;-76
2022/05/03 01:26:52;;;;;;;4.85;2.88;;;5.30;99.90;;;;;;5012493;28;20059;-76
2022/05/03 01:29:32;;;;;;;7.47;3.22;;;5.30;99.90;;;;;;4996458;28;20496;-75
2022/05/03 01:32:07;;;;;;;5.22;3.95;;;5.30;99.90;;;;;;4996521;28;20053;-76
2022/05/03 01:34:33;;;;;;;9.45;4.32;;;5.20;99.90;;;;;;5012592;28;20054;-76
2022/05/03 01:37:17;;;;;;;7.38;4.22;;;5.10;99.90;;;;;;5012835;28;20045;-76
2022/05/03 01:40:01;;;;;;;9.82;3.65;;;5.10;99.90;;;;;;5016147;28;20107;-76
2022/05/03 01:43:02;;;;;;;6.78;3.92;;;5.10;99.90;;;;;;5016525;28;20083;-76
2022/05/03 01:45:33;;;;;;;6.63;3.65;;;5.10;99.90;;;;;;5016425;28;20060;-76
2022/05/03 01:51:44;;;;;;;7.68;3.83;;;5.10;99.90;;;;;;4934038;29;20142;-76
2022/05/03 01:54:41;;;;;;;7.43;3.53;;;5.00;99.90;;;;;;4918405;29;20052;-75
2022/05/03 01:57:14;;;;;;;6.75;4.43;;;5.00;99.90;;;;;;5012703;28;20069;-76
2022/05/03 01:59:56;;;;;;;6.35;3.92;;;5.10;99.90;;;;;;5015947;28;20464;-76
2022/05/03 02:02:44;;;;;;;6.32;4.07;;;5.00;99.90;;;;;;5016431;28;20060;-76
2022/05/03 02:05:19;;;;;;;5.80;3.83;;;5.00;99.90;;;;;;5016380;28;20435;-76
2022/05/03 02:07:55;;;;;;;6.57;3.97;;;5.00;99.90;;;;;;5015940;28;20396;-76
2022/05/03 02:10:39;;;;;;;6.75;3.80;;;4.90;99.90;;;;;;5015805;28;20431;-76
2022/05/03 02:16:30;;;;;;;7.07;3.50;;;4.90;99.90;;;;;;5033559;28;20535;-76
2022/05/03 02:19:37;;;;;;;6.38;3.85;;;4.90;99.90;;;;;;5015593;28;20076;-76
2022/05/03 02:22:24;;;;;;;7.72;4.07;;;4.80;99.90;;;;;;5016031;28;20041;-75
2022/05/03 02:24:59;;;;;;;6.25;3.42;;;4.80;99.90;;;;;;5015646;28;20124;-76
2022/05/03 02:27:27;;;;;;;7.32;4.20;;;4.80;99.90;;;;;;5015776;28;20160;-76
2022/05/03 02:29:56;;;;;;;8.75;4.18;;;4.80;99.90;;;;;;5015296;28;20048;-76
2022/05/03 02:32:27;;;;;;;6.35;3.95;;;4.70;99.90;;;;;;5015679;28;20049;-76
2022/05/03 02:35:03;;;;;;;11.55;5.30;;;4.70;99.90;;;;;;5015411;28;20047;-76
2022/05/03 02:37:46;;;;;;;9.38;4.03;;;4.80;99.90;;;;;;5015608;28;20113;-76
2022/05/03 02:40:15;;;;;;;6.85;3.97;;;4.80;99.90;;;;;;5015077;28;20399;-76
2022/05/03 02:42:42;;;;;;;8.55;4.00;;;4.80;99.90;;;;;;5015412;28;20038;-76
2022/05/03 02:45:08;;;;;;;12.23;5.03;;;4.70;99.90;;;;;;5015369;28;20103;-76
2022/05/03 02:47:43;;;;;;;7.10;4.28;;;4.70;99.90;;;;;;5015281;28;20053;-76
2022/05/03 02:50:12;;;;;;;6.03;3.92;;;4.70;99.90;;;;;;5014204;28;20046;-75
2022/05/03 02:52:43;;;;;;;9.50;3.90;;;4.70;99.90;;;;;;5015285;28;20041;-76
2022/05/03 02:55:44;;;;;;;7.63;4.25;;;4.70;99.90;;;;;;5015043;28;20045;-75
2022/05/03 02:58:29;;;;;;;5.93;3.53;;;4.60;99.90;;;;;;5014930;28;20041;-75
2022/05/03 03:04:25;;;;;;;8.70;4.32;;;4.50;99.90;;;;;;5015081;28;20053;-75
2022/05/03 03:06:54;;;;;;;10.75;4.65;;;4.60;99.90;;;;;;5014141;28;20629;-75
2022/05/03 03:09:40;;;;;;;8.15;4.25;;;4.60;99.90;;;;;;5014809;28;20279;-75
2022/05/03 03:12:44;;;;;;;8.40;4.60;;;4.60;99.90;;;;;;5015061;28;20064;-75
2022/05/03 03:15:10;;;;;;;7.93;3.90;;;4.60;99.90;;;;;;5014927;28;20057;-75
2022/05/03 03:17:42;;;;;;;7.68;4.78;;;4.50;99.90;;;;;;5015065;28;20099;-75
2022/05/03 03:20:09;;;;;;;8.35;4.32;;;4.50;99.90;;;;;;5031916;28;20506;-75
2022/05/03 03:22:41;;;;;;;12.35;4.82;;;4.50;99.90;;;;;;5014565;28;20047;-75
2022/05/03 03:25:08;;;;;;;7.88;4.03;;;4.50;99.90;;;;;;5014248;28;20091;-76
2022/05/03 03:27:35;;;;;;;8.07;4.80;;;4.40;99.90;;;;;;5014711;28;20037;-76
2022/05/03 03:30:04;;;;;;;9.13;5.68;;;4.40;99.90;;;;;;5013985;28;20041;-75
2022/05/03 03:32:30;;;;;;;9.40;4.90;;;4.40;99.90;;;;;;5014692;28;20378;-75
2022/05/03 03:34:58;;;;;;;9.30;5.45;;;4.30;99.90;;;;;;5014213;28;20037;-76
2022/05/03 03:37:29;;;;;;;9.95;5.78;;;4.40;99.90;;;;;;5014624;28;20049;-75
2022/05/03 03:39:55;;;;;;;8.73;5.25;;;4.40;99.90;;;;;;5013695;28;20412;-75
2022/05/03 03:42:21;;;;;;;13.23;5.93;;;4.40;99.90;;;;;;5031937;28;20043;-75
2022/05/03 03:44:47;;;;;;;11.32;5.07;;;4.30;99.90;;;;;;5014359;28;20140;-75
2022/05/03 03:47:15;;;;;;;10.13;5.30;;;4.30;99.90;;;;;;5014213;28;20527;-75
2022/05/03 03:49:41;;;;;;;9.77;4.65;;;4.40;99.90;;;;;;5013906;28;20572;-75
2022/05/03 03:52:08;;;;;;;11.05;6.18;;;4.40;99.90;;;;;;5013939;28;20057;-75
2022/05/03 03:54:35;;;;;;;9.18;4.97;;;4.40;99.90;;;;;;5013898;28;20698;-74
2022/05/03 03:57:03;;;;;;;8.88;4.30;;;4.40;99.90;;;;;;5024612;28;20060;-75
2022/05/03 03:59:30;;;;;;;9.07;5.35;;;4.40;99.90;;;;;;5035785;28;20055;-74
2022/05/03 04:01:58;;;;;;;7.75;4.90;;;4.30;99.90;;;;;;5020208;28;20052;-75
2022/05/03 04:04:29;;;;;;;13.65;5.47;;;4.30;99.90;;;;;;5013721;28;20056;-76
2022/05/03 04:06:55;;;;;;;11.43;5.55;;;4.30;99.90;;;;;;5013609;28;20048;-76
2022/05/03 04:09:20;;;;;;;10.52;5.30;;;4.30;99.90;;;;;;5013752;28;20049;-76
2022/05/03 04:11:47;;;;;;;6.82;4.20;;;4.30;99.90;;;;;;5013635;28;20056;-75
2022/05/03 04:14:14;;;;;;;9.30;4.85;;;4.30;99.90;;;;;;5013644;28;20046;-76
2022/05/03 04:16:40;;;;;;;8.70;5.45;;;4.30;99.90;;;;;;5013434;28;20053;-76
2022/05/03 04:19:06;;;;;;;9.05;5.18;;;4.40;99.90;;;;;;5013226;28;20152;-76
2022/05/03 04:21:31;;;;;;;8.30;5.35;;;4.40;99.90;;;;;;5013294;28;20041;-76
2022/05/03 04:23:57;;;;;;;8.60;5.43;;;4.40;99.90;;;;;;5013566;28;20055;-78
2022/05/03 04:26:22;;;;;;;8.20;4.85;;;4.40;99.90;;;;;;5013907;28;20041;-76
2022/05/03 04:28:48;;;;;;;9.00;4.68;;;4.40;99.90;;;;;;5013588;28;20419;-77
2022/05/03 04:31:13;;;;;;;10.50;5.47;;;4.40;99.90;;;;;;5013651;28;20433;-77
2022/05/03 04:33:39;;;;;;;9.52;5.28;;;4.40;99.90;;;;;;5014058;28;20413;-77
2022/05/03 04:36:05;;;;;;;9.05;5.10;;;4.30;99.90;;;;;;5013543;28;20084;-77
2022/05/03 04:38:31;;;;;;;10.93;5.78;;;4.40;99.90;;;;;;5013656;28;20045;-78
2022/05/03 04:41:02;;;;;;;13.40;7.80;;;4.30;99.90;;;;;;5013592;28;20096;-77
2022/05/03 04:43:28;;;;;;;47.80;23.85;;;4.40;99.90;;;;;;5013891;28;20041;-77
2022/05/03 04:45:53;;;;;;;21.45;10.15;;;4.50;99.90;;;;;;5013727;28;20072;-76
2022/05/03 04:48:19;;;;;;;13.00;6.32;;;4.60;99.90;;;;;;5013690;28;20037;-77
2022/05/03 04:50:45;;;;;;;10.32;5.65;;;4.80;99.90;;;;;;5014805;28;20046;-77
2022/05/03 04:53:10;;;;;;;8.38;5.00;;;5.00;99.90;;;;;;4997847;28;20468;-77
2022/05/03 04:55:38;;;;;;;9.50;5.65;;;5.20;99.90;;;;;;5013751;28;20106;-77
2022/05/03 04:58:04;;;;;;;12.85;6.35;;;5.30;99.90;;;;;;5013948;28;20453;-77
2022/05/03 05:00:30;;;;;;;9.52;5.55;;;5.50;99.90;;;;;;5013410;28;20086;-77
2022/05/03 05:02:55;;;;;;;9.93;5.97;;;5.90;99.90;;;;;;4997581;28;20104;-77
2022/05/03 05:05:21;;;;;;;9.20;6.05;;;6.20;99.90;;;;;;5013889;28;20053;-77
2022/05/03 05:07:46;;;;;;;12.93;6.90;;;6.60;99.90;;;;;;5014325;28;20493;-77
2022/05/03 05:10:24;;;;;;;50.05;26.58;;;6.90;99.90;;;;;;5014102;28;20112;-77
2022/05/03 05:12:54;;;;;;;10.95;6.60;;;7.20;99.90;;;;;;5015465;28;20045;-77
2022/05/03 05:15:23;;;;;;;8.70;5.93;;;7.50;99.90;;;;;;5002954;28;20133;-77
2022/05/03 05:17:49;;;;;;;10.45;6.30;;;7.70;99.90;;;;;;5003879;28;20088;-78
2022/05/03 05:20:15;;;;;;;9.77;5.90;;;7.80;99.90;;;;;;5019025;28;20049;-78
2022/05/03 05:22:42;;;;;;;9.75;6.00;;;8.10;99.90;;;;;;5002976;28;20070;-77
2022/05/03 05:25:08;;;;;;;10.60;5.93;;;8.20;99.90;;;;;;5019354;28;20049;-77
2022/05/03 05:27:33;;;;;;;16.17;8.30;;;8.50;99.90;;;;;;5019025;28;20037;-78
2022/05/03 05:29:59;;;;;;;13.20;9.15;;;8.90;99.90;;;;;;5018800;28;20111;-79
2022/05/03 05:32:24;;;;;;;65.63;34.72;;;9.20;99.90;;;;;;5003017;28;20072;-77
2022/05/03 05:34:50;;;;;;;11.82;7.07;;;9.60;99.90;;;;;;5018009;28;20033;-78
2022/05/03 05:37:15;;;;;;;12.77;6.70;;;9.90;99.90;;;;;;5018050;28;20048;-78
2022/05/03 05:39:41;;;;;;;9.07;6.93;;;10.20;99.90;;;;;;5019885;28;20041;-78
2022/05/03 05:42:06;;;;;;;10.85;7.22;;;10.50;99.90;;;;;;5001772;28;20034;-75
2022/05/03 05:44:32;;;;;;;10.77;6.43;;;10.80;99.90;;;;;;5016869;28;20059;-76
2022/05/03 05:46:58;;;;;;;10.70;7.68;;;11.10;99.90;;;;;;5016359;28;20511;-75
2022/05/03 05:49:23;;;;;;;13.18;6.78;;;11.10;99.90;;;;;;5016323;28;20041;-75
2022/05/03 05:51:49;;;;;;;10.60;7.85;;;11.00;99.90;;;;;;5033955;28;20046;-76
2022/05/03 05:54:16;;;;;;;12.40;7.78;;;11.00;99.90;;;;;;5016460;28;20048;-76
2022/05/03 05:56:42;;;;;;;16.27;8.68;;;10.90;99.90;;;;;;5016259;28;20161;-76
2022/05/03 05:59:07;;;;;;;14.65;8.30;;;10.80;99.90;;;;;;5016134;28;20465;-75
2022/05/03 06:01:38;;;;;;;13.02;8.90;;;10.80;99.90;;;;;;5015793;28;20120;-76
2022/05/03 06:04:04;;;;;;;14.77;9.20;;;10.70;99.90;;;;;;5016210;28;20080;-76
2022/05/03 06:06:31;;;;;;;14.32;9.45;;;10.90;99.90;;;;;;5016113;28;20045;-76
2022/05/03 06:08:56;;;;;;;15.32;9.55;;;11.10;99.90;;;;;;5033744;28;20046;-76
2022/05/03 06:11:22;;;;;;;16.60;10.88;;;11.20;99.90;;;;;;5016119;28;20189;-76
2022/05/03 06:13:47;;;;;;;17.27;9.77;;;11.30;99.90;;;;;;5016896;28;20045;-76
2022/05/03 06:16:13;;;;;;;20.13;12.20;;;11.10;99.90;;;;;;5016581;28;20504;-76
2022/05/03 06:18:39;;;;;;;24.88;13.27;;;11.00;99.90;;;;;;5015900;28;20083;-76
2022/05/03 06:21:07;;;;;;;20.45;11.77;;;10.80;99.90;;;;;;5015699;28;20083;-76
2022/05/03 06:23:33;;;;;;;22.42;12.75;;;10.80;99.90;;;;;;5015272;28;20133;-77
2022/05/03 06:25:59;;;;;;;22.40;13.07;;;10.60;99.90;;;;;;5016515;28;20045;-76
2022/05/03 06:28:24;;;;;;;26.48;13.95;;;10.60;99.90;;;;;;5016393;28;20432;-76
2022/05/03 06:30:50;;;;;;;24.58;13.07;;;10.60;99.90;;;;;;5033149;28;20096;-75
2022/05/03 06:33:15;;;;;;;25.05;14.30;;;10.60;99.90;;;;;;5015752;28;20049;-76
2022/05/03 06:35:41;;;;;;;26.08;15.02;;;10.60;99.90;;;;;;4999209;28;20045;-76
2022/05/03 06:38:07;;;;;;;27.15;15.65;;;10.70;99.90;;;;;;5015356;28;20480;-76
2022/05/03 06:40:32;;;;;;;28.75;15.13;;;10.70;99.90;;;;;;5015434;28;20120;-76
2022/05/03 06:42:58;;;;;;;27.52;15.52;;;10.80;99.90;;;;;;5015329;28;20045;-76
2022/05/03 06:45:24;;;;;;;27.08;15.35;;;11.00;99.90;;;;;;5015271;28;20094;-76
2022/05/03 06:47:49;;;;;;;27.75;15.85;;;11.20;99.90;;;;;;5032977;28;20048;-76
2022/05/03 06:50:16;;;;;;;27.48;14.52;;;11.30;99.90;;;;;;5014829;28;20041;-76
2022/05/03 06:52:42;;;;;;;24.38;13.88;;;11.30;99.90;;;;;;5019713;28;20117;-75
2022/05/03 06:55:08;;;;;;;26.08;15.48;;;11.30;99.90;;;;;;5036161;28;20121;-76
2022/05/03 06:57:35;;;;;;;30.10;15.13;;;11.20;99.90;;;;;;5035268;28;20060;-76
2022/05/03 07:00:02;;;;;;;29.83;16.05;;;11.10;99.90;;;;;;5016332;28;20045;-77
2022/05/03 07:02:30;;;;;;;29.65;16.10;;;11.10;99.90;;;;;;5015194;28;20520;-77
2022/05/03 07:04:56;;;;;;;31.30;16.67;;;11.00;99.90;;;;;;5014922;28;20500;-77
2022/05/03 07:07:22;;;;;;;33.33;17.27;;;10.90;99.90;;;;;;4998979;28;20053;-78
2022/05/03 07:09:48;;;;;;;34.40;18.00;;;10.80;99.90;;;;;;5014607;28;20041;-78
2022/05/03 07:12:13;;;;;;;33.60;17.63;;;10.80;99.90;;;;;;5014868;28;20455;-77
2022/05/03 07:14:39;;;;;;;39.88;18.40;;;10.70;99.90;;;;;;5015083;28;20052;-78
2022/05/03 07:17:05;;;;;;;33.85;17.83;;;10.70;99.90;;;;;;5015034;28;20049;-77
2022/05/03 07:24:58;;;;;;;42.58;18.65;;;10.70;99.90;;;;;;5014868;28;20049;-78
2022/05/03 07:27:24;;;;;;;52.85;22.45;;;10.70;99.90;;;;;;5015161;28;20041;-77
2022/05/03 07:29:50;;;;;;;61.72;23.38;;;10.60;99.90;;;;;;5014393;28;20080;-76
2022/05/03 07:32:15;;;;;;;61.00;24.75;;;10.60;99.90;;;;;;5014711;28;20513;-77
2022/05/03 07:34:41;;;;;;;62.65;24.13;;;10.60;99.90;;;;;;5032126;28;20116;-77
2022/05/03 07:37:07;;;;;;;58.65;23.90;;;10.60;99.90;;;;;;5014607;28;20041;-77
2022/05/03 07:39:32;;;;;;;59.22;22.65;;;10.60;99.90;;;;;;5014372;28;20489;-77
2022/05/03 07:41:58;;;;;;;68.00;24.90;;;10.70;99.90;;;;;;5014680;28;20041;-76
2022/05/03 07:44:23;;;;;;;54.97;22.30;;;10.80;99.90;;;;;;5014370;28;20187;-77
2022/05/03 07:46:49;;;;;;;53.00;20.48;;;10.80;99.90;;;;;;4998162;28;20049;-77
2022/05/03 07:49:14;;;;;;;50.92;21.17;;;10.80;99.90;;;;;;4998050;28;20041;-77
2022/05/03 07:51:44;;;;;;;51.58;20.15;;;10.90;99.90;;;;;;5014635;28;20041;-77
2022/05/03 07:54:09;;;;;;;60.20;23.40;;;10.90;99.90;;;;;;5014567;28;20041;-77
2022/05/03 07:56:36;;;;;;;67.07;23.88;;;10.90;99.90;;;;;;5014328;28;20044;-76
2022/05/03 07:59:02;;;;;;;76.20;26.73;;;10.90;99.90;;;;;;5013880;28;20063;-78
2022/05/03 08:01:28;;;;;;;69.47;25.65;;;10.90;99.90;;;;;;5013730;28;20048;-77
2022/05/03 08:03:54;;;;;;;76.05;26.40;;;10.90;99.90;;;;;;5014019;28;20057;-76
2022/05/03 08:06:21;;;;;;;84.22;27.80;;;10.90;99.90;;;;;;5031572;28;20407;-77
2022/05/03 08:08:46;;;;;;;80.90;28.25;;;10.90;99.90;;;;;;5030762;28;20099;-77
2022/05/03 08:11:12;;;;;;;79.70;26.48;;;11.00;99.90;;;;;;5011971;28;20041;-77
2022/05/03 08:13:37;;;;;;;81.18;26.25;;;11.00;99.90;;;;;;5030676;28;20072;-77
2022/05/03 08:16:03;;;;;;;77.55;25.20;;;11.00;99.90;;;;;;5013129;28;20405;-76
2022/05/03 08:18:29;;;;;;;75.47;25.13;;;11.00;99.90;;;;;;5013040;28;20515;-77
2022/05/03 08:20:54;;;;;;;73.85;24.40;;;11.00;99.90;;;;;;5012327;28;20153;-77
2022/05/03 08:23:20;;;;;;;74.03;23.45;;;10.90;99.90;;;;;;5030282;28;20042;-77
2022/05/03 08:25:45;;;;;;;68.68;23.60;;;10.90;99.90;;;;;;4997747;28;20081;-76
2022/05/03 08:28:11;;;;;;;59.35;21.38;;;10.80;99.90;;;;;;5014213;28;20050;-77
2022/05/03 08:30:36;;;;;;;59.33;21.25;;;10.80;99.90;;;;;;5013834;28;20045;-77
2022/05/03 08:33:02;;;;;;;46.15;18.92;;;10.80;99.90;;;;;;5014453;28;20512;-77
2022/05/03 08:35:28;;;;;;;45.05;18.45;;;10.80;99.90;;;;;;5013926;28;20041;-77
2022/05/03 08:43:24;;;;;;;45.53;17.27;;;10.90;99.90;;;;;;5013685;28;20100;-77
2022/05/03 08:45:50;;;;;;;40.20;15.05;;;11.00;99.90;;;;;;5013884;28;20049;-77
2022/05/03 08:48:17;;;;;;;43.15;16.30;;;10.90;99.90;;;;;;5031255;28;20777;-78
2022/05/03 08:50:45;;;;;;;39.25;16.10;;;10.90;99.90;;;;;;5013261;28;20493;-77
2022/05/03 08:53:11;;;;;;;33.60;16.55;;;10.90;99.90;;;;;;5031454;28;20046;-77
2022/05/03 08:55:41;;;;;;;37.10;15.90;;;10.90;99.90;;;;;;5015284;28;20068;-76
2022/05/03 08:58:06;;;;;;;34.38;14.75;;;10.90;99.90;;;;;;5013991;28;20497;-77
2022/05/03 09:00:33;;;;;;;34.38;15.90;;;10.90;99.90;;;;;;5031384;28;20057;-76
2022/05/03 09:02:59;;;;;;;38.67;15.20;;;11.00;99.90;;;;;;5013789;28;20049;-76
2022/05/03 09:05:25;;;;;;;38.80;16.08;;;11.00;99.90;;;;;;5013482;28;20052;-76
2022/05/03 09:07:54;;;;;;;40.97;16.17;;;11.00;99.90;;;;;;5013475;28;20511;-76
2022/05/03 09:10:22;;;;;;;31.75;14.65;;;11.00;99.90;;;;;;5013530;28;20048;-77
2022/05/03 09:12:49;;;;;;;30.45;13.95;;;11.00;99.90;;;;;;5014326;28;20117;-77
2022/05/03 09:15:15;;;;;;;36.30;15.93;;;11.00;99.90;;;;;;5013972;28;20589;-76
2022/05/03 09:17:45;;;;;;;33.25;14.70;;;11.10;99.90;;;;;;5031506;28;20505;-76
2022/05/03 09:26:07;;;;;;;38.80;13.50;;;11.10;99.90;;;;;;5014609;28;20060;-77
2022/05/03 09:28:33;;;;;;;27.80;8.95;;;11.20;99.90;;;;;;4997855;28;20041;-77
2022/05/03 09:30:59;;;;;;;118.35;18.13;;;11.20;99.90;;;;;;5031694;28;20520;-77
2022/05/03 09:33:24;;;;;;;15.65;8.25;;;11.20;99.90;;;;;;5014713;28;20041;-78
2022/05/03 09:35:50;;;;;;;24.98;8.15;;;11.20;99.90;;;;;;4997838;28;20096;-77
2022/05/03 09:38:17;;;;;;;15.00;6.38;;;11.20;99.90;;;;;;5014364;28;20045;-77
2022/05/03 09:40:44;;;;;;;19.35;6.82;;;11.30;99.90;;;;;;5014689;28;20041;-77
2022/05/03 09:43:11;;;;;;;16.75;7.05;;;11.30;99.90;;;;;;5013652;28;20069;-75
2022/05/03 09:45:37;;;;;;;15.05;6.65;;;11.30;99.90;;;;;;5012473;28;20048;-75
2022/05/03 09:48:03;;;;;;;17.40;6.65;;;11.30;99.90;;;;;;5012681;28;20041;-75
2022/05/03 09:50:32;;;;;;;15.57;6.50;;;11.30;99.90;;;;;;5012146;28;20053;-75
2022/05/03 09:53:17;;;;;;;12.88;5.82;;;11.20;99.90;;;;;;5012656;28;20049;-77
2022/05/03 09:55:45;;;;;;;17.02;6.07;;;11.20;99.90;;;;;;5012444;28;20555;-76
2022/05/03 09:58:13;;;;;;;15.18;5.95;;;11.10;99.90;;;;;;5013028;28;20041;-75
2022/05/03 10:00:41;;;;;;;13.90;5.55;;;11.10;99.90;;;;;;5015696;28;20117;-75
2022/05/03 10:03:09;;;;;;;11.18;5.65;;;11.10;99.90;;;;;;5015955;28;20483;-75
2022/05/03 10:05:37;;;;;;;10.50;5.22;;;11.10;99.90;;;;;;5016014;28;20049;-75
2022/05/03 10:08:03;;;;;;;17.17;6.05;;;11.10;99.90;;;;;;5016107;28;20045;-75
2022/05/03 10:10:29;;;;;;;17.25;5.72;;;11.10;99.90;;;;;;5015526;28;20081;-75
2022/05/03 10:12:55;;;;;;;9.30;5.35;;;11.10;99.90;;;;;;5015894;28;20064;-74
2022/05/03 10:21:02;;;;;;;15.88;5.90;;;11.00;99.90;;;;;;5035549;28;20057;-75
2022/05/03 10:23:30;;;;;;;13.30;6.28;;;10.90;99.90;;;;;;5032738;28;20049;-76
2022/05/03 10:26:09;;;;;;;18.45;5.82;;;11.00;99.90;;;;;;5004361;28;20129;-75
2022/05/03 10:29:02;;;;;;;15.25;6.03;;;11.00;99.90;;;;;;5015636;28;20037;-75
2022/05/03 10:31:27;;;;;;;21.00;6.57;;;11.00;99.90;;;;;;5015409;28;20052;-75
2022/05/03 10:33:53;;;;;;;16.75;6.13;;;10.90;99.90;;;;;;5015591;28;20045;-75
2022/05/03 10:36:33;;;;;;;12.27;6.22;;;10.90;99.90;;;;;;5015603;28;20492;-75
2022/05/03 10:39:20;;;;;;;16.17;7.55;;;10.90;99.90;;;;;;5015144;28;20493;-78
2022/05/03 10:42:02;;;;;;;19.02;7.13;;;10.90;99.90;;;;;;5032981;28;20055;-75
2022/05/03 10:44:46;;;;;;;17.60;6.55;;;11.00;99.90;;;;;;5015329;28;20504;-75
2022/05/03 10:47:18;;;;;;;15.93;5.75;;;11.00;99.90;;;;;;5015267;28;20605;-75
2022/05/03 10:50:18;;;;;;;15.50;5.70;;;11.00;99.90;;;;;;5014859;28;20045;-75
2022/05/03 10:52:55;;;;;;;18.88;5.40;;;11.10;99.90;;;;;;4998877;28;20156;-75
2022/05/03 10:55:22;;;;;;;17.42;5.93;;;11.20;99.90;;;;;;5015098;28;20053;-74
2022/05/03 10:58:23;;;;;;;16.90;6.90;;;11.20;99.90;;;;;;5015092;28;20056;-77
2022/05/03 11:01:19;;;;;;;22.38;6.90;;;11.20;99.90;;;;;;5014561;28;20041;-75
2022/05/03 11:03:48;;;;;;;17.20;5.53;;;11.30;99.90;;;;;;5015110;28;20046;-75
2022/05/03 11:06:21;;;;;;;13.70;5.03;;;11.40;99.90;;;;;;5014838;28;20092;-74
2022/05/03 11:09:09;;;;;;;14.23;5.63;;;11.40;99.90;;;;;;5015275;28;20064;-75
2022/05/03 11:11:43;;;;;;;19.85;5.97;;;11.40;99.90;;;;;;5032030;28;20049;-77
2022/05/03 11:14:21;;;;;;;17.15;6.13;;;11.40;99.90;;;;;;5016073;28;20100;-76
2022/05/03 11:17:05;;;;;;;17.02;5.57;;;11.50;99.90;;;;;;5016070;28;20042;-76
2022/05/03 11:19:52;;;;;;;18.52;6.15;;;11.50;99.90;;;;;;5015456;28;20046;-78
2022/05/03 11:22:25;;;;;;;22.27;5.13;;;11.60;99.90;;;;;;5015882;28;20084;-75
2022/05/03 11:24:53;;;;;;;18.38;4.80;;;11.60;99.90;;;;;;5015758;28;20132;-76
2022/05/03 11:27:20;;;;;;;15.68;4.70;;;11.70;99.90;;;;;;5015251;28;20053;-75
2022/05/03 11:29:49;;;;;;;11.30;4.63;;;11.70;99.90;;;;;;5033038;28;20041;-75
2022/05/03 11:32:25;;;;;;;22.10;5.97;;;11.80;99.90;;;;;;5015155;28;20517;-77
2022/05/03 11:34:51;;;;;;;19.98;5.68;;;11.80;99.90;;;;;;5015221;28;20037;-78
2022/05/03 11:37:16;;;;;;;14.57;4.78;;;11.90;99.90;;;;;;5015358;28;20051;-77
2022/05/03 11:39:42;;;;;;;19.15;5.63;;;12.00;99.90;;;;;;5014977;28;20496;-76
2022/05/03 11:42:10;;;;;;;10.90;4.40;;;12.10;99.90;;;;;;5014638;28;20046;-76
2022/05/03 11:44:43;;;;;;;15.13;4.22;;;12.20;99.90;;;;;;5032234;28;20056;-78
2022/05/03 11:47:09;;;;;;;10.48;4.22;;;12.30;99.90;;;;;;4998417;28;20095;-76
2022/05/03 11:49:36;;;;;;;11.57;4.07;;;12.40;99.90;;;;;;5031812;28;20049;-76
2022/05/03 11:57:35;;;;;;;6.82;3.55;;;12.50;99.90;;;;;;5031838;28;20571;-76
2022/05/03 12:00:04;;;;;;;13.48;4.45;;;12.60;99.90;;;;;;5032233;28;20459;-78
2022/05/03 12:02:37;;;;;;;11.90;4.10;;;12.60;99.90;;;;;;4997942;28;20484;-77
2022/05/03 12:05:06;;;;;;;19.67;6.07;;;12.70;99.90;;;;;;5032248;28;20076;-76
2022/05/03 12:08:19;;;;;;;22.45;4.63;;;12.70;99.90;;;;;;5031884;28;20052;-76
2022/05/03 12:10:44;;;;;;;16.92;5.00;;;12.70;99.90;;;;;;4932179;29;20048;-78
2022/05/03 12:13:22;;;;;;;13.55;3.72;;;12.70;99.90;;;;;;4932142;29;20063;-78
2022/05/03 12:15:50;;;;;;;16.75;4.25;;;12.80;99.90;;;;;;4992018;28;20542;-81
2022/05/03 12:18:33;;;;;;;13.57;3.67;;;12.90;99.90;;;;;;5014361;28;20489;-78
2022/05/03 12:21:13;;;;;;;13.05;4.93;;;12.80;99.90;;;;;;5013508;28;20048;-79
2022/05/03 12:23:47;;;;;;;10.32;4.13;;;12.90;99.90;;;;;;5013126;28;20033;-79
2022/05/03 12:26:20;;;;;;;10.98;3.40;;;12.90;99.90;;;;;;5013728;28;20100;-79
2022/05/03 12:28:51;;;;;;;14.00;3.92;;;13.00;99.90;;;;;;5013815;28;20049;-79
2022/05/03 12:31:18;;;;;;;10.18;5.18;;;13.00;99.90;;;;;;5013428;28;20080;-79
2022/05/03 12:33:49;;;;;;;12.32;3.70;;;13.10;99.90;;;;;;5013618;28;20516;-79
2022/05/03 12:36:33;;;;;;;14.23;3.53;;;13.20;99.90;;;;;;4997315;28;20046;-79
2022/05/03 12:39:16;;;;;;;12.77;3.78;;;13.40;99.90;;;;;;5031103;28;20772;-79
2022/05/03 12:41:53;;;;;;;11.98;3.83;;;13.60;99.90;;;;;;5013393;28;20123;-78
2022/05/03 12:44:19;;;;;;;12.20;3.47;;;13.70;99.90;;;;;;5013636;28;20558;-79
2022/05/03 12:46:45;;;;;;;10.13;3.20;;;14.00;99.90;;;;;;5013552;28;20053;-81
2022/05/03 12:49:12;;;;;;;11.13;2.92;;;14.20;99.90;;;;;;4997014;28;20576;-79
2022/05/03 12:51:42;;;;;;;12.05;2.78;;;14.30;99.90;;;;;;5013347;28;20132;-78
2022/05/03 12:54:08;;;;;;;10.63;2.83;;;14.40;99.90;;;;;;5013655;28;20076;-76
2022/05/03 12:59:21;;;;;;;9.38;2.78;;;14.40;99.90;;;;;;5031797;28;20139;-76
2022/05/03 13:01:48;;;;;;;11.55;3.28;;;14.40;99.90;;;;;;5013964;28;20046;-76
2022/05/03 13:04:14;;;;;;;6.15;2.53;;;14.50;99.90;;;;;;5014119;28;20092;-77
2022/05/03 13:06:41;;;;;;;8.20;3.47;;;14.60;99.90;;;;;;5014139;28;20500;-77
2022/05/03 13:09:08;;;;;;;8.70;3.15;;;14.50;99.90;;;;;;4997719;28;20321;-77
2022/05/03 13:11:34;;;;;;;10.35;4.43;;;14.50;99.90;;;;;;5013821;28;20075;-80
2022/05/03 13:14:00;;;;;;;8.57;2.63;;;14.50;99.90;;;;;;5012236;28;20069;-80
2022/05/03 13:16:27;;;;;;;16.83;7.55;;;14.50;99.90;;;;;;5001624;28;20038;-77
2022/05/03 13:18:52;;;;;;;7.50;2.53;;;14.30;99.90;;;;;;5013859;28;20095;-79
2022/05/03 13:21:18;;;;;;;39.55;16.33;;;14.20;99.90;;;;;;5013707;28;20054;-77
2022/05/03 13:23:44;;;;;;;8.93;2.92;;;14.20;99.90;;;;;;5014305;28;20512;-80
2022/05/03 13:26:10;;;;;;;13.82;3.83;;;14.20;99.90;;;;;;4997392;28;20532;-77
2022/05/03 13:28:36;;;;;;;13.20;4.95;;;14.10;99.90;;;;;;5031583;28;20041;-78
2022/05/03 13:31:02;;;;;;;11.75;4.32;;;14.10;99.90;;;;;;5013307;28;20400;-76
2022/05/03 13:33:27;;;;;;;11.10;4.45;;;14.10;99.90;;;;;;5014356;28;20037;-77
2022/05/03 13:41:21;;;;;;;6.65;2.58;;;14.10;99.90;;;;;;5016794;28;20511;-77
2022/05/03 13:43:48;;;;;;;8.27;2.42;;;14.20;99.90;;;;;;5017191;28;20037;-77
2022/05/03 13:46:14;;;;;;;5.75;2.75;;;14.20;99.90;;;;;;5034571;28;20089;-77
2022/05/03 13:48:40;;;;;;;7.55;2.08;;;14.30;99.90;;;;;;5000371;28;20041;-78